Rolling Prairie, IN (46371)

9:02 PM CDT on September 20, 2014 (GMT -0500)
RangeWood Subdivision | Change Station
CLOSE
Current Station
Personal Weather Station
Location: La Porte, IN
Elevation: 820 ft
Nearby Weather Stations

Elev 820 ft 41.68 °N, 86.69 °W | Updated 5 seconds ago

Partly Cloudy
Partly Cloudy
66.4 °F
Feels Like 66.4 °F
N
0.0
Wind Variable Wind from East
Gusts 0.7 mph

Today
High -- | Low -- °F
--% Chance of Precip.
Yesterday
High -- | Low -- °F
Precip. -- in
6:31 AM 6:47 PM
Waning Crescent, 9% visible
Pressure 29.83 in
Visibility 7.0 miles
Clouds Scattered Clouds 3000 ft
Scattered Clouds 4100 ft
Scattered Clouds 11000 ft
Dew Point 66 °F
Humidity 99%
Rainfall 0.02 in
Snow Depth Not available.
UV 0 out of 12
Pollen 5.60 out of 12
Air Quality Not available.
Flu Activity Not available.
METAR KPPO 210155Z AUTO 22005KT 7SM SCT030 SCT041 SCT110 19/19 A2983 RMK AO2 LTG DSNT S AND SW T01880188

More Conditions Fewer Conditions

Pressure 29.83 in
Visibility 7.0 miles
Clouds Scattered Clouds 3000 ft
Scattered Clouds 4100 ft
Scattered Clouds 11000 ft
Dew Point 66 °F
Humidity 99%
Rainfall 0.02 in
Snow Depth Not available.
UV 0 out of 12
Pollen 5.60 out of 12
Air Quality Not available.
Flu Activity Not available.
METAR KPPO 210155Z AUTO 22005KT 7SM SCT030 SCT041 SCT110 19/19 A2983 RMK AO2 LTG DSNT S AND SW T01880188

More Conditions Fewer Conditions

10-Day Weather Forecast

Almanac

Astronomy

Sep. 20, 2014 Rise Set
Actual Time 6:31 AM CDT 6:47 PM CDT
Civil Twilight 6:04 AM CDT 7:14 PM CDT
Nautical Twilight 5:31 AM CDT 7:47 PM CDT
Astronomical Twilight 4:58 AM CDT 8:20 PM CDT
Moon 3:08 AM CDT (9/20) 4:52 PM CDT (9/20)
Length of Visible Light 13h 10m
Length of Day
12h 15m
Tomorrow will be 2m 47s shorter.
Waning Crescent, 9% of the Moon is Illuminated
Today
Waning Crescent
Sep 24
New
Oct 1
First Quarter
Oct 8
Full
Oct 15
Last Quarter

Today's Extremes

State Highs State Lows

Community

WunderPhotos

Upload Photos

1,755,032 photos uploaded!

WunderBlogs® & News

Nearby

Snow Depth

Station Depth Elevation
No new snow has been reported.

Earthquake Activity

City Distance Mag. Time & Date
No recent earthquake activity has been reported nearby.
Minimum magnitude displayed is 2.5.

Coastal Water Temperatures

Place Temperature
Holland, MI 62.1 °F

Nearby Weather Stations